sensor_id;sensor_type;location;lat;lon;timestamp;P1;durP1;ratioP1;P2;durP2;ratioP2
52035;SDS011;38046;49.448;32.074;2022-12-13T00:01:48;11.77;;;8.30;;
52035;SDS011;38046;49.448;32.074;2022-12-13T00:04:15;13.45;;;8.63;;
52035;SDS011;38046;49.448;32.074;2022-12-13T00:06:41;12.45;;;8.43;;
52035;SDS011;38046;49.448;32.074;2022-12-13T00:09:07;13.65;;;9.13;;
52035;SDS011;38046;49.448;32.074;2022-12-13T00:11:33;12.07;;;8.65;;
52035;SDS011;38046;49.448;32.074;2022-12-13T00:13:58;11.82;;;8.35;;
52035;SDS011;38046;49.448;32.074;2022-12-13T00:16:24;12.15;;;8.63;;
52035;SDS011;38046;49.448;32.074;2022-12-13T00:18:52;12.82;;;8.60;;
52035;SDS011;38046;49.448;32.074;2022-12-13T00:21:21;11.23;;;8.82;;
52035;SDS011;38046;49.448;32.074;2022-12-13T00:23:48;12.60;;;8.50;;
52035;SDS011;38046;49.448;32.074;2022-12-13T00:26:15;12.60;;;8.63;;
52035;SDS011;38046;49.448;32.074;2022-12-13T00:28:43;11.43;;;8.45;;
52035;SDS011;38046;49.448;32.074;2022-12-13T00:31:10;13.35;;;9.10;;
52035;SDS011;38046;49.448;32.074;2022-12-13T00:33:36;11.30;;;8.85;;
52035;SDS011;38046;49.448;32.074;2022-12-13T00:36:04;11.80;;;8.40;;
52035;SDS011;38046;49.448;32.074;2022-12-13T00:38:31;11.60;;;8.38;;
52035;SDS011;38046;49.448;32.074;2022-12-13T00:40:58;12.05;;;8.18;;
52035;SDS011;38046;49.448;32.074;2022-12-13T00:43:24;11.73;;;8.30;;
52035;SDS011;38046;49.448;32.074;2022-12-13T00:45:49;12.27;;;8.93;;
52035;SDS011;38046;49.448;32.074;2022-12-13T00:48:15;11.55;;;7.90;;
52035;SDS011;38046;49.448;32.074;2022-12-13T00:50:41;12.68;;;8.60;;
52035;SDS011;38046;49.448;32.074;2022-12-13T00:53:06;11.00;;;7.82;;
52035;SDS011;38046;49.448;32.074;2022-12-13T00:55:32;11.63;;;7.80;;
52035;SDS011;38046;49.448;32.074;2022-12-13T00:57:58;11.95;;;8.35;;
52035;SDS011;38046;49.448;32.074;2022-12-13T01:00:23;14.32;;;8.90;;
52035;SDS011;38046;49.448;32.074;2022-12-13T01:16:26;14.27;;;10.18;;
52035;SDS011;38046;49.448;32.074;2022-12-13T01:18:52;12.73;;;9.95;;
52035;SDS011;38046;49.448;32.074;2022-12-13T01:21:18;11.85;;;9.40;;
52035;SDS011;38046;49.448;32.074;2022-12-13T01:23:47;12.50;;;9.75;;
52035;SDS011;38046;49.448;32.074;2022-12-13T01:26:15;13.88;;;11.20;;
52035;SDS011;38046;49.448;32.074;2022-12-13T01:28:45;13.15;;;10.77;;
52035;SDS011;38046;49.448;32.074;2022-12-13T01:31:13;13.38;;;10.27;;
52035;SDS011;38046;49.448;32.074;2022-12-13T01:33:41;14.52;;;11.40;;
52035;SDS011;38046;49.448;32.074;2022-12-13T01:36:08;14.10;;;10.93;;
52035;SDS011;38046;49.448;32.074;2022-12-13T01:38:37;12.55;;;10.00;;
52035;SDS011;38046;49.448;32.074;2022-12-13T01:41:03;11.13;;;8.75;;
52035;SDS011;38046;49.448;32.074;2022-12-13T01:46:02;12.40;;;9.32;;
52035;SDS011;38046;49.448;32.074;2022-12-13T01:48:30;13.35;;;9.30;;
52035;SDS011;38046;49.448;32.074;2022-12-13T01:51:01;13.23;;;9.50;;
52035;SDS011;38046;49.448;32.074;2022-12-13T01:53:30;11.63;;;8.80;;
52035;SDS011;38046;49.448;32.074;2022-12-13T01:56:01;12.85;;;8.80;;
52035;SDS011;38046;49.448;32.074;2022-12-13T01:58:31;10.98;;;7.93;;
52035;SDS011;38046;49.448;32.074;2022-12-13T02:01:00;11.20;;;8.15;;
52035;SDS011;38046;49.448;32.074;2022-12-13T02:03:26;12.43;;;8.00;;
52035;SDS011;38046;49.448;32.074;2022-12-13T02:06:12;11.90;;;8.30;;
52035;SDS011;38046;49.448;32.074;2022-12-13T02:08:44;12.30;;;8.02;;
52035;SDS011;38046;49.448;32.074;2022-12-13T02:11:11;9.68;;;7.47;;
52035;SDS011;38046;49.448;32.074;2022-12-13T02:13:38;12.02;;;8.20;;
52035;SDS011;38046;49.448;32.074;2022-12-13T02:16:09;11.75;;;8.80;;
52035;SDS011;38046;49.448;32.074;2022-12-13T02:21:46;11.80;;;9.45;;
52035;SDS011;38046;49.448;32.074;2022-12-13T02:27:37;12.80;;;8.05;;
52035;SDS011;38046;49.448;32.074;2022-12-13T02:33:05;12.38;;;8.27;;
52035;SDS011;38046;49.448;32.074;2022-12-13T02:36:06;10.30;;;7.68;;
52035;SDS011;38046;49.448;32.074;2022-12-13T02:38:42;12.15;;;8.48;;
52035;SDS011;38046;49.448;32.074;2022-12-13T02:41:26;12.57;;;9.48;;
52035;SDS011;38046;49.448;32.074;2022-12-13T02:43:56;12.52;;;8.75;;
52035;SDS011;38046;49.448;32.074;2022-12-13T02:46:29;13.40;;;9.20;;
52035;SDS011;38046;49.448;32.074;2022-12-13T02:48:59;13.23;;;8.90;;
52035;SDS011;38046;49.448;32.074;2022-12-13T02:51:26;12.15;;;8.85;;
52035;SDS011;38046;49.448;32.074;2022-12-13T02:53:54;13.20;;;8.90;;
52035;SDS011;38046;49.448;32.074;2022-12-13T02:56:20;11.20;;;8.07;;
52035;SDS011;38046;49.448;32.074;2022-12-13T02:58:46;9.90;;;7.65;;
52035;SDS011;38046;49.448;32.074;2022-12-13T03:02:16;11.63;;;7.93;;
52035;SDS011;38046;49.448;32.074;2022-12-13T03:04:37;12.35;;;8.50;;
52035;SDS011;38046;49.448;32.074;2022-12-13T03:08:08;10.38;;;7.32;;
52035;SDS011;38046;49.448;32.074;2022-12-13T03:10:46;11.43;;;8.27;;
52035;SDS011;38046;49.448;32.074;2022-12-13T03:13:26;9.70;;;7.88;;
52035;SDS011;38046;49.448;32.074;2022-12-13T03:16:16;10.82;;;8.43;;
52035;SDS011;38046;49.448;32.074;2022-12-13T03:18:54;12.93;;;7.22;;
52035;SDS011;38046;49.448;32.074;2022-12-13T03:21:23;11.88;;;8.63;;
52035;SDS011;38046;49.448;32.074;2022-12-13T03:23:49;9.65;;;7.63;;
52035;SDS011;38046;49.448;32.074;2022-12-13T03:26:17;11.55;;;7.97;;
52035;SDS011;38046;49.448;32.074;2022-12-13T03:28:46;11.07;;;8.10;;
52035;SDS011;38046;49.448;32.074;2022-12-13T03:31:12;11.90;;;8.50;;
52035;SDS011;38046;49.448;32.074;2022-12-13T03:33:38;9.32;;;7.22;;
52035;SDS011;38046;49.448;32.074;2022-12-13T03:36:04;11.85;;;8.10;;
52035;SDS011;38046;49.448;32.074;2022-12-13T03:38:31;10.35;;;7.13;;
52035;SDS011;38046;49.448;32.074;2022-12-13T03:40:58;10.20;;;7.00;;
52035;SDS011;38046;49.448;32.074;2022-12-13T03:43:27;9.93;;;7.72;;
52035;SDS011;38046;49.448;32.074;2022-12-13T03:45:54;11.77;;;7.90;;
52035;SDS011;38046;49.448;32.074;2022-12-13T03:48:20;11.20;;;7.55;;
52035;SDS011;38046;49.448;32.074;2022-12-13T03:50:47;7.88;;;5.93;;
52035;SDS011;38046;49.448;32.074;2022-12-13T03:53:13;10.57;;;6.97;;
52035;SDS011;38046;49.448;32.074;2022-12-13T03:55:39;11.43;;;7.40;;
52035;SDS011;38046;49.448;32.074;2022-12-13T03:58:05;10.18;;;7.85;;
52035;SDS011;38046;49.448;32.074;2022-12-13T04:00:31;11.85;;;8.00;;
52035;SDS011;38046;49.448;32.074;2022-12-13T04:02:57;11.60;;;8.98;;
52035;SDS011;38046;49.448;32.074;2022-12-13T04:05:22;15.43;;;11.23;;
52035;SDS011;38046;49.448;32.074;2022-12-13T04:07:48;16.67;;;11.23;;
52035;SDS011;38046;49.448;32.074;2022-12-13T04:10:14;16.65;;;12.38;;
52035;SDS011;38046;49.448;32.074;2022-12-13T04:12:40;17.77;;;13.18;;
52035;SDS011;38046;49.448;32.074;2022-12-13T04:15:24;19.08;;;14.93;;
52035;SDS011;38046;49.448;32.074;2022-12-13T04:17:49;17.90;;;15.68;;
52035;SDS011;38046;49.448;32.074;2022-12-13T04:20:15;17.13;;;13.43;;
52035;SDS011;38046;49.448;32.074;2022-12-13T04:22:41;14.27;;;12.40;;
52035;SDS011;38046;49.448;32.074;2022-12-13T04:25:07;16.90;;;12.07;;
52035;SDS011;38046;49.448;32.074;2022-12-13T04:27:32;15.43;;;11.60;;
52035;SDS011;38046;49.448;32.074;2022-12-13T04:29:58;15.40;;;10.82;;
52035;SDS011;38046;49.448;32.074;2022-12-13T04:32:24;14.73;;;10.65;;
52035;SDS011;38046;49.448;32.074;2022-12-13T04:34:49;16.60;;;12.00;;
52035;SDS011;38046;49.448;32.074;2022-12-13T04:37:15;17.33;;;12.52;;
52035;SDS011;38046;49.448;32.074;2022-12-13T04:39:40;17.80;;;11.05;;
52035;SDS011;38046;49.448;32.074;2022-12-13T04:42:06;12.80;;;9.30;;
52035;SDS011;38046;49.448;32.074;2022-12-13T04:44:32;12.77;;;9.73;;
52035;SDS011;38046;49.448;32.074;2022-12-13T04:46:57;16.45;;;10.90;;
52035;SDS011;38046;49.448;32.074;2022-12-13T04:49:23;15.13;;;10.48;;
52035;SDS011;38046;49.448;32.074;2022-12-13T04:51:49;13.40;;;9.55;;
52035;SDS011;38046;49.448;32.074;2022-12-13T04:54:14;12.90;;;9.05;;
52035;SDS011;38046;49.448;32.074;2022-12-13T04:56:40;15.10;;;10.55;;
52035;SDS011;38046;49.448;32.074;2022-12-13T04:59:06;15.23;;;9.70;;
52035;SDS011;38046;49.448;32.074;2022-12-13T05:01:31;15.05;;;9.82;;
52035;SDS011;38046;49.448;32.074;2022-12-13T05:03:58;14.32;;;9.18;;
52035;SDS011;38046;49.448;32.074;2022-12-13T05:06:25;14.13;;;8.52;;
52035;SDS011;38046;49.448;32.074;2022-12-13T05:08:51;15.70;;;9.80;;
52035;SDS011;38046;49.448;32.074;2022-12-13T05:11:16;17.23;;;10.88;;
52035;SDS011;38046;49.448;32.074;2022-12-13T05:13:42;14.85;;;9.90;;
52035;SDS011;38046;49.448;32.074;2022-12-13T05:16:08;13.90;;;8.95;;
52035;SDS011;38046;49.448;32.074;2022-12-13T05:18:35;14.40;;;10.25;;
52035;SDS011;38046;49.448;32.074;2022-12-13T05:21:02;15.38;;;9.50;;
52035;SDS011;38046;49.448;32.074;2022-12-13T05:23:29;17.98;;;9.93;;
52035;SDS011;38046;49.448;32.074;2022-12-13T05:25:55;18.38;;;10.85;;
52035;SDS011;38046;49.448;32.074;2022-12-13T05:28:21;15.00;;;9.45;;
52035;SDS011;38046;49.448;32.074;2022-12-13T05:30:49;13.18;;;8.68;;
52035;SDS011;38046;49.448;32.074;2022-12-13T05:33:15;13.98;;;8.60;;
52035;SDS011;38046;49.448;32.074;2022-12-13T05:35:41;13.15;;;8.88;;
52035;SDS011;38046;49.448;32.074;2022-12-13T05:38:07;12.65;;;8.50;;
52035;SDS011;38046;49.448;32.074;2022-12-13T05:40:32;12.77;;;8.63;;
52035;SDS011;38046;49.448;32.074;2022-12-13T05:42:58;16.77;;;10.88;;
52035;SDS011;38046;49.448;32.074;2022-12-13T05:45:24;15.30;;;9.40;;
52035;SDS011;38046;49.448;32.074;2022-12-13T05:47:50;13.50;;;8.70;;
52035;SDS011;38046;49.448;32.074;2022-12-13T05:50:15;12.45;;;8.10;;
52035;SDS011;38046;49.448;32.074;2022-12-13T05:52:42;11.70;;;7.68;;
52035;SDS011;38046;49.448;32.074;2022-12-13T05:55:07;13.13;;;8.85;;
52035;SDS011;38046;49.448;32.074;2022-12-13T05:57:34;12.63;;;9.40;;
52035;SDS011;38046;49.448;32.074;2022-12-13T06:00:00;12.93;;;7.90;;
52035;SDS011;38046;49.448;32.074;2022-12-13T06:02:27;13.35;;;9.32;;
52035;SDS011;38046;49.448;32.074;2022-12-13T06:04:52;14.00;;;9.20;;
52035;SDS011;38046;49.448;32.074;2022-12-13T06:07:18;16.33;;;10.80;;
52035;SDS011;38046;49.448;32.074;2022-12-13T06:09:44;16.77;;;10.23;;
52035;SDS011;38046;49.448;32.074;2022-12-13T06:12:10;14.02;;;9.77;;
52035;SDS011;38046;49.448;32.074;2022-12-13T06:14:35;13.75;;;9.50;;
52035;SDS011;38046;49.448;32.074;2022-12-13T06:17:01;15.52;;;10.25;;
52035;SDS011;38046;49.448;32.074;2022-12-13T06:19:27;14.27;;;10.55;;
52035;SDS011;38046;49.448;32.074;2022-12-13T06:21:53;17.38;;;11.25;;
52035;SDS011;38046;49.448;32.074;2022-12-13T06:24:21;15.00;;;10.98;;
52035;SDS011;38046;49.448;32.074;2022-12-13T06:26:47;16.17;;;11.18;;
52035;SDS011;38046;49.448;32.074;2022-12-13T06:29:15;15.10;;;10.77;;
52035;SDS011;38046;49.448;32.074;2022-12-13T06:31:42;16.20;;;11.18;;
52035;SDS011;38046;49.448;32.074;2022-12-13T06:34:07;17.08;;;11.77;;
52035;SDS011;38046;49.448;32.074;2022-12-13T06:36:33;17.30;;;12.15;;
52035;SDS011;38046;49.448;32.074;2022-12-13T06:39:04;18.45;;;13.02;;
52035;SDS011;38046;49.448;32.074;2022-12-13T06:41:31;17.77;;;12.50;;
52035;SDS011;38046;49.448;32.074;2022-12-13T06:43:57;16.95;;;13.02;;
52035;SDS011;38046;49.448;32.074;2022-12-13T06:46:23;15.63;;;11.50;;
52035;SDS011;38046;49.448;32.074;2022-12-13T06:48:49;15.95;;;11.00;;
52035;SDS011;38046;49.448;32.074;2022-12-13T06:51:15;15.75;;;11.00;;
52035;SDS011;38046;49.448;32.074;2022-12-13T06:53:41;13.70;;;10.57;;
52035;SDS011;38046;49.448;32.074;2022-12-13T06:56:11;13.50;;;10.00;;
52035;SDS011;38046;49.448;32.074;2022-12-13T06:58:38;13.85;;;10.18;;
52035;SDS011;38046;49.448;32.074;2022-12-13T07:01:06;13.75;;;9.43;;
52035;SDS011;38046;49.448;32.074;2022-12-13T07:03:34;12.88;;;8.70;;
52035;SDS011;38046;49.448;32.074;2022-12-13T07:06:08;12.95;;;10.10;;
52035;SDS011;38046;49.448;32.074;2022-12-13T07:08:42;11.95;;;8.90;;
52035;SDS011;38046;49.448;32.074;2022-12-13T07:11:15;12.98;;;8.93;;
52035;SDS011;38046;49.448;32.074;2022-12-13T07:13:43;13.77;;;9.40;;
52035;SDS011;38046;49.448;32.074;2022-12-13T07:16:09;14.23;;;10.52;;
52035;SDS011;38046;49.448;32.074;2022-12-13T07:18:36;13.43;;;9.95;;
52035;SDS011;38046;49.448;32.074;2022-12-13T07:21:09;13.65;;;9.90;;
52035;SDS011;38046;49.448;32.074;2022-12-13T07:23:37;17.80;;;11.95;;
52035;SDS011;38046;49.448;32.074;2022-12-13T07:26:04;18.23;;;11.25;;
52035;SDS011;38046;49.448;32.074;2022-12-13T07:28:32;15.70;;;11.85;;
52035;SDS011;38046;49.448;32.074;2022-12-13T07:30:59;20.58;;;14.10;;
52035;SDS011;38046;49.448;32.074;2022-12-13T07:33:26;20.55;;;13.90;;
52035;SDS011;38046;49.448;32.074;2022-12-13T07:36:03;19.98;;;13.93;;
52035;SDS011;38046;49.448;32.074;2022-12-13T07:41:06;18.70;;;13.40;;
52035;SDS011;38046;49.448;32.074;2022-12-13T07:43:32;17.02;;;12.82;;
52035;SDS011;38046;49.448;32.074;2022-12-13T07:45:59;17.05;;;12.10;;
52035;SDS011;38046;49.448;32.074;2022-12-13T07:48:26;16.10;;;11.38;;
52035;SDS011;38046;49.448;32.074;2022-12-13T07:50:53;18.08;;;11.98;;
52035;SDS011;38046;49.448;32.074;2022-12-13T07:53:19;16.42;;;11.48;;
52035;SDS011;38046;49.448;32.074;2022-12-13T07:55:48;15.68;;;11.27;;
52035;SDS011;38046;49.448;32.074;2022-12-13T07:58:14;13.35;;;10.10;;
52035;SDS011;38046;49.448;32.074;2022-12-13T08:00:41;12.10;;;9.07;;
52035;SDS011;38046;49.448;32.074;2022-12-13T08:03:08;11.25;;;8.55;;
52035;SDS011;38046;49.448;32.074;2022-12-13T08:05:35;11.93;;;8.70;;
52035;SDS011;38046;49.448;32.074;2022-12-13T08:08:02;9.80;;;7.30;;
52035;SDS011;38046;49.448;32.074;2022-12-13T08:10:30;9.98;;;7.55;;
52035;SDS011;38046;49.448;32.074;2022-12-13T08:12:56;9.65;;;7.40;;
52035;SDS011;38046;49.448;32.074;2022-12-13T08:15:22;10.52;;;7.68;;
52035;SDS011;38046;49.448;32.074;2022-12-13T08:17:49;13.90;;;8.43;;
52035;SDS011;38046;49.448;32.074;2022-12-13T08:20:15;10.77;;;7.65;;
52035;SDS011;38046;49.448;32.074;2022-12-13T08:22:41;12.38;;;8.45;;
52035;SDS011;38046;49.448;32.074;2022-12-13T08:25:08;12.65;;;8.95;;
52035;SDS011;38046;49.448;32.074;2022-12-13T08:27:34;12.02;;;7.97;;
52035;SDS011;38046;49.448;32.074;2022-12-13T08:30:00;10.82;;;7.75;;
52035;SDS011;38046;49.448;32.074;2022-12-13T08:32:26;9.98;;;7.57;;
52035;SDS011;38046;49.448;32.074;2022-12-13T08:34:51;9.38;;;7.07;;
52035;SDS011;38046;49.448;32.074;2022-12-13T08:37:17;10.43;;;6.88;;
52035;SDS011;38046;49.448;32.074;2022-12-13T08:39:43;8.80;;;6.63;;
52035;SDS011;38046;49.448;32.074;2022-12-13T08:42:13;7.82;;;6.18;;
52035;SDS011;38046;49.448;32.074;2022-12-13T08:44:40;8.90;;;6.43;;
52035;SDS011;38046;49.448;32.074;2022-12-13T08:47:07;8.95;;;6.13;;
52035;SDS011;38046;49.448;32.074;2022-12-13T08:49:33;9.50;;;6.30;;
52035;SDS011;38046;49.448;32.074;2022-12-13T08:51:59;9.05;;;6.05;;
52035;SDS011;38046;49.448;32.074;2022-12-13T08:54:25;9.93;;;7.80;;
52035;SDS011;38046;49.448;32.074;2022-12-13T08:56:51;8.63;;;6.25;;
52035;SDS011;38046;49.448;32.074;2022-12-13T08:59:16;9.20;;;6.65;;
52035;SDS011;38046;49.448;32.074;2022-12-13T09:01:43;9.85;;;6.38;;
52035;SDS011;38046;49.448;32.074;2022-12-13T09:04:09;8.13;;;6.40;;
52035;SDS011;38046;49.448;32.074;2022-12-13T09:06:37;9.70;;;6.95;;
52035;SDS011;38046;49.448;32.074;2022-12-13T09:09:06;10.73;;;6.70;;
52035;SDS011;38046;49.448;32.074;2022-12-13T09:11:32;10.32;;;7.32;;
52035;SDS011;38046;49.448;32.074;2022-12-13T09:13:58;11.68;;;8.00;;
52035;SDS011;38046;49.448;32.074;2022-12-13T09:16:24;10.32;;;7.35;;
52035;SDS011;38046;49.448;32.074;2022-12-13T09:18:51;10.85;;;8.23;;
52035;SDS011;38046;49.448;32.074;2022-12-13T09:21:17;10.68;;;7.78;;
52035;SDS011;38046;49.448;32.074;2022-12-13T09:23:43;10.55;;;7.32;;
52035;SDS011;38046;49.448;32.074;2022-12-13T09:26:10;9.95;;;7.47;;
52035;SDS011;38046;49.448;32.074;2022-12-13T09:28:37;10.52;;;6.65;;
52035;SDS011;38046;49.448;32.074;2022-12-13T09:31:07;9.35;;;6.50;;
52035;SDS011;38046;49.448;32.074;2022-12-13T09:33:37;11.13;;;7.28;;
52035;SDS011;38046;49.448;32.074;2022-12-13T09:36:04;11.75;;;7.00;;
52035;SDS011;38046;49.448;32.074;2022-12-13T09:38:33;10.80;;;6.97;;
52035;SDS011;38046;49.448;32.074;2022-12-13T09:41:01;12.07;;;7.53;;
52035;SDS011;38046;49.448;32.074;2022-12-13T09:43:52;11.98;;;7.50;;
52035;SDS011;38046;49.448;32.074;2022-12-13T09:46:23;12.45;;;7.45;;
52035;SDS011;38046;49.448;32.074;2022-12-13T09:48:56;11.55;;;8.15;;
52035;SDS011;38046;49.448;32.074;2022-12-13T09:51:24;10.52;;;7.57;;
52035;SDS011;38046;49.448;32.074;2022-12-13T09:53:51;13.85;;;7.93;;
52035;SDS011;38046;49.448;32.074;2022-12-13T09:56:18;10.30;;;7.05;;
52035;SDS011;38046;49.448;32.074;2022-12-13T09:58:52;9.52;;;6.85;;
52035;SDS011;38046;49.448;32.074;2022-12-13T10:01:23;9.52;;;6.38;;
52035;SDS011;38046;49.448;32.074;2022-12-13T10:03:50;7.45;;;5.80;;
52035;SDS011;38046;49.448;32.074;2022-12-13T10:06:21;7.07;;;5.13;;
52035;SDS011;38046;49.448;32.074;2022-12-13T10:08:53;9.38;;;5.97;;
52035;SDS011;38046;49.448;32.074;2022-12-13T10:11:21;9.00;;;6.28;;
52035;SDS011;38046;49.448;32.074;2022-12-13T10:16:54;8.98;;;6.38;;
52035;SDS011;38046;49.448;32.074;2022-12-13T10:19:27;7.68;;;5.57;;
52035;SDS011;38046;49.448;32.074;2022-12-13T10:22:03;8.98;;;5.80;;
52035;SDS011;38046;49.448;32.074;2022-12-13T10:24:55;9.65;;;6.68;;
52035;SDS011;38046;49.448;32.074;2022-12-13T10:28:06;9.25;;;6.07;;
52035;SDS011;38046;49.448;32.074;2022-12-13T10:30:19;7.97;;;5.28;;
52035;SDS011;38046;49.448;32.074;2022-12-13T10:35:26;8.77;;;5.40;;
52035;SDS011;38046;49.448;32.074;2022-12-13T10:37:59;8.23;;;5.80;;
52035;SDS011;38046;49.448;32.074;2022-12-13T10:40:34;8.15;;;5.43;;
52035;SDS011;38046;49.448;32.074;2022-12-13T10:43:05;6.93;;;5.00;;
52035;SDS011;38046;49.448;32.074;2022-12-13T10:46:02;8.55;;;5.90;;
52035;SDS011;38046;49.448;32.074;2022-12-13T10:48:34;8.40;;;6.28;;
52035;SDS011;38046;49.448;32.074;2022-12-13T10:51:11;8.25;;;6.22;;
52035;SDS011;38046;49.448;32.074;2022-12-13T10:53:40;9.77;;;6.50;;
52035;SDS011;38046;49.448;32.074;2022-12-13T10:56:17;9.75;;;7.28;;
52035;SDS011;38046;49.448;32.074;2022-12-13T10:58:45;9.68;;;6.78;;
52035;SDS011;38046;49.448;32.074;2022-12-13T11:03:54;11.13;;;7.75;;
52035;SDS011;38046;49.448;32.074;2022-12-13T11:06:20;14.40;;;9.50;;
52035;SDS011;38046;49.448;32.074;2022-12-13T11:08:46;16.17;;;10.73;;
52035;SDS011;38046;49.448;32.074;2022-12-13T11:11:11;14.70;;;10.38;;
52035;SDS011;38046;49.448;32.074;2022-12-13T11:13:43;14.48;;;10.55;;
52035;SDS011;38046;49.448;32.074;2022-12-13T11:16:21;14.18;;;9.10;;
52035;SDS011;38046;49.448;32.074;2022-12-13T11:18:56;14.13;;;9.95;;
52035;SDS011;38046;49.448;32.074;2022-12-13T11:21:45;14.80;;;9.90;;
52035;SDS011;38046;49.448;32.074;2022-12-13T11:24:47;11.65;;;8.55;;
52035;SDS011;38046;49.448;32.074;2022-12-13T11:27:22;15.32;;;9.68;;
52035;SDS011;38046;49.448;32.074;2022-12-13T11:35:25;15.18;;;10.95;;
52035;SDS011;38046;49.448;32.074;2022-12-13T11:40:41;16.55;;;11.65;;
52035;SDS011;38046;49.448;32.074;2022-12-13T11:45:58;15.55;;;11.45;;
52035;SDS011;38046;49.448;32.074;2022-12-13T11:48:32;16.48;;;11.32;;
52035;SDS011;38046;49.448;32.074;2022-12-13T11:51:17;15.15;;;10.73;;
52035;SDS011;38046;49.448;32.074;2022-12-13T11:56:31;14.15;;;10.25;;
52035;SDS011;38046;49.448;32.074;2022-12-13T11:59:08;13.38;;;10.23;;
52035;SDS011;38046;49.448;32.074;2022-12-13T12:01:56;13.80;;;10.30;;
52035;SDS011;38046;49.448;32.074;2022-12-13T12:05:04;15.15;;;10.85;;
52035;SDS011;38046;49.448;32.074;2022-12-13T12:07:29;14.95;;;11.50;;
52035;SDS011;38046;49.448;32.074;2022-12-13T12:12:37;15.35;;;10.45;;
52035;SDS011;38046;49.448;32.074;2022-12-13T12:17:56;13.57;;;9.90;;
52035;SDS011;38046;49.448;32.074;2022-12-13T12:21:23;12.30;;;9.32;;
52035;SDS011;38046;49.448;32.074;2022-12-13T12:37:24;10.80;;;8.30;;
52035;SDS011;38046;49.448;32.074;2022-12-13T12:51:06;14.90;;;11.25;;
52035;SDS011;38046;49.448;32.074;2022-12-13T12:53:42;14.50;;;11.02;;
52035;SDS011;38046;49.448;32.074;2022-12-13T13:02:02;14.63;;;10.57;;
52035;SDS011;38046;49.448;32.074;2022-12-13T13:04:36;14.45;;;11.13;;
52035;SDS011;38046;49.448;32.074;2022-12-13T13:07:14;14.43;;;11.00;;
52035;SDS011;38046;49.448;32.074;2022-12-13T13:09:48;16.63;;;12.40;;
52035;SDS011;38046;49.448;32.074;2022-12-13T13:12:15;12.45;;;10.50;;
52035;SDS011;38046;49.448;32.074;2022-12-13T13:14:42;14.40;;;10.95;;
52035;SDS011;38046;49.448;32.074;2022-12-13T13:20:10;13.40;;;9.97;;
52035;SDS011;38046;49.448;32.074;2022-12-13T13:22:42;13.63;;;9.75;;
52035;SDS011;38046;49.448;32.074;2022-12-13T13:27:41;12.50;;;9.48;;
52035;SDS011;38046;49.448;32.074;2022-12-13T13:30:20;11.43;;;9.27;;
52035;SDS011;38046;49.448;32.074;2022-12-13T13:32:50;13.15;;;9.20;;
52035;SDS011;38046;49.448;32.074;2022-12-13T13:37:53;13.43;;;10.45;;
52035;SDS011;38046;49.448;32.074;2022-12-13T13:45:28;16.35;;;11.02;;
52035;SDS011;38046;49.448;32.074;2022-12-13T13:48:04;13.30;;;10.38;;
52035;SDS011;38046;49.448;32.074;2022-12-13T13:53:47;14.05;;;10.88;;
52035;SDS011;38046;49.448;32.074;2022-12-13T14:07:59;16.33;;;12.75;;
52035;SDS011;38046;49.448;32.074;2022-12-13T14:21:53;13.93;;;11.00;;
52035;SDS011;38046;49.448;32.074;2022-12-13T14:27:21;13.40;;;10.55;;
52035;SDS011;38046;49.448;32.074;2022-12-13T14:29:59;13.27;;;10.02;;
52035;SDS011;38046;49.448;32.074;2022-12-13T14:32:27;11.82;;;9.63;;
52035;SDS011;38046;49.448;32.074;2022-12-13T14:34:55;11.10;;;8.80;;
52035;SDS011;38046;49.448;32.074;2022-12-13T14:37:29;11.15;;;8.73;;
52035;SDS011;38046;49.448;32.074;2022-12-13T14:40:11;11.25;;;8.68;;
52035;SDS011;38046;49.448;32.074;2022-12-13T14:42:52;11.97;;;9.27;;
52035;SDS011;38046;49.448;32.074;2022-12-13T14:45:22;10.93;;;8.70;;
52035;SDS011;38046;49.448;32.074;2022-12-13T14:47:58;10.18;;;8.00;;
52035;SDS011;38046;49.448;32.074;2022-12-13T14:50:28;11.07;;;7.88;;
52035;SDS011;38046;49.448;32.074;2022-12-13T14:52:57;9.93;;;7.85;;
52035;SDS011;38046;49.448;32.074;2022-12-13T14:55:26;13.10;;;9.55;;
52035;SDS011;38046;49.448;32.074;2022-12-13T14:57:56;12.88;;;9.68;;
52035;SDS011;38046;49.448;32.074;2022-12-13T15:02:54;12.98;;;9.95;;
52035;SDS011;38046;49.448;32.074;2022-12-13T15:05:24;12.70;;;9.88;;
52035;SDS011;38046;49.448;32.074;2022-12-13T15:07:58;13.32;;;10.20;;
52035;SDS011;38046;49.448;32.074;2022-12-13T15:10:41;13.60;;;10.50;;
52035;SDS011;38046;49.448;32.074;2022-12-13T15:16:08;14.13;;;10.43;;
52035;SDS011;38046;49.448;32.074;2022-12-13T15:19:14;13.55;;;10.52;;
52035;SDS011;38046;49.448;32.074;2022-12-13T15:21:52;14.45;;;11.00;;
52035;SDS011;38046;49.448;32.074;2022-12-13T15:24:21;16.15;;;11.60;;
52035;SDS011;38046;49.448;32.074;2022-12-13T15:26:54;15.95;;;11.88;;
52035;SDS011;38046;49.448;32.074;2022-12-13T15:29:21;13.48;;;10.57;;
52035;SDS011;38046;49.448;32.074;2022-12-13T15:31:49;14.38;;;11.38;;
52035;SDS011;38046;49.448;32.074;2022-12-13T15:34:22;15.68;;;11.60;;
52035;SDS011;38046;49.448;32.074;2022-12-13T15:36:58;15.18;;;11.27;;
52035;SDS011;38046;49.448;32.074;2022-12-13T15:39:33;13.55;;;10.77;;
52035;SDS011;38046;49.448;32.074;2022-12-13T15:42:01;12.70;;;10.27;;
52035;SDS011;38046;49.448;32.074;2022-12-13T15:44:39;13.52;;;10.32;;
52035;SDS011;38046;49.448;32.074;2022-12-13T15:47:11;13.38;;;9.88;;
52035;SDS011;38046;49.448;32.074;2022-12-13T15:49:49;13.50;;;10.30;;
52035;SDS011;38046;49.448;32.074;2022-12-13T15:52:23;13.20;;;9.63;;
52035;SDS011;38046;49.448;32.074;2022-12-13T15:54:56;11.48;;;9.38;;
52035;SDS011;38046;49.448;32.074;2022-12-13T15:57:50;11.50;;;8.82;;
52035;SDS011;38046;49.448;32.074;2022-12-13T16:02:48;13.50;;;9.07;;
52035;SDS011;38046;49.448;32.074;2022-12-13T16:07:57;13.80;;;10.35;;
52035;SDS011;38046;49.448;32.074;2022-12-13T16:10:24;11.45;;;9.18;;
52035;SDS011;38046;49.448;32.074;2022-12-13T16:12:52;12.98;;;9.68;;
52035;SDS011;38046;49.448;32.074;2022-12-13T16:15:24;13.63;;;9.27;;
52035;SDS011;38046;49.448;32.074;2022-12-13T16:18:11;12.48;;;9.93;;
52035;SDS011;38046;49.448;32.074;2022-12-13T16:20:45;13.32;;;11.40;;
52035;SDS011;38046;49.448;32.074;2022-12-13T16:23:10;16.92;;;13.15;;
52035;SDS011;38046;49.448;32.074;2022-12-13T16:25:36;14.57;;;11.23;;
52035;SDS011;38046;49.448;32.074;2022-12-13T16:28:03;14.90;;;10.57;;
52035;SDS011;38046;49.448;32.074;2022-12-13T16:33:16;16.98;;;11.70;;
52035;SDS011;38046;49.448;32.074;2022-12-13T16:35:47;17.20;;;13.05;;
52035;SDS011;38046;49.448;32.074;2022-12-13T16:38:13;18.38;;;13.40;;
52035;SDS011;38046;49.448;32.074;2022-12-13T16:40:40;20.77;;;15.32;;
52035;SDS011;38046;49.448;32.074;2022-12-13T16:43:12;18.45;;;14.27;;
52035;SDS011;38046;49.448;32.074;2022-12-13T16:45:42;21.10;;;16.23;;
52035;SDS011;38046;49.448;32.074;2022-12-13T16:48:09;22.75;;;15.40;;
52035;SDS011;38046;49.448;32.074;2022-12-13T16:50:36;26.75;;;18.73;;
52035;SDS011;38046;49.448;32.074;2022-12-13T16:53:05;25.92;;;19.30;;
52035;SDS011;38046;49.448;32.074;2022-12-13T16:55:31;27.50;;;18.92;;
52035;SDS011;38046;49.448;32.074;2022-12-13T16:58:00;26.35;;;18.92;;